createdAt,value
2023-02-02T00:02:19.667Z,7.01
2023-02-02T00:07:21.104Z,6.98
2023-02-02T00:12:22.686Z,6.99
2023-02-02T00:17:24.197Z,7.01
2023-02-02T00:22:25.641Z,6.98
2023-02-02T00:27:27.178Z,6.92
2023-02-02T00:32:28.680Z,6.89
2023-02-02T00:37:30.114Z,6.97
2023-02-02T00:42:31.473Z,6.90
2023-02-02T00:47:32.916Z,6.88
2023-02-02T00:52:34.322Z,6.91
2023-02-02T00:57:36.094Z,6.85
2023-02-02T01:02:37.519Z,6.82
2023-02-02T01:07:40.110Z,6.89
2023-02-02T01:12:42.414Z,6.94
2023-02-02T01:17:43.998Z,6.97
2023-02-02T01:22:46.258Z,7.02
2023-02-02T01:27:47.668Z,6.96
2023-02-02T01:32:49.198Z,7.00
2023-02-02T01:37:50.574Z,6.96
2023-02-02T01:42:51.990Z,6.96
2023-02-02T01:47:59.364Z,6.98
2023-02-02T01:53:03.247Z,6.99
2023-02-02T01:58:09.953Z,7.04
2023-02-02T02:03:16.950Z,7.08
2023-02-02T02:08:21.478Z,7.05
2023-02-02T02:13:25.088Z,7.04
2023-02-02T02:18:45.823Z,7.09
2023-02-02T02:24:06.083Z,7.08
2023-02-02T02:29:22.384Z,7.05
2023-02-02T02:34:43.961Z,7.11
2023-02-02T02:39:54.246Z,7.02
2023-02-02T02:44:56.599Z,7.07
2023-02-02T02:49:58.046Z,7.13
2023-02-02T02:55:01.223Z,7.07
2023-02-02T03:00:44.546Z,7.07
2023-02-02T03:05:49.048Z,7.08
2023-02-02T03:10:52.061Z,7.11
2023-02-02T03:15:54.248Z,7.04
2023-02-02T03:20:56.155Z,7.07
2023-02-02T03:25:57.665Z,7.06
2023-02-02T03:31:00.948Z,7.03
2023-02-02T03:36:02.540Z,6.98
2023-02-02T03:41:06.958Z,7.07
2023-02-02T03:46:08.523Z,7.01
2023-02-02T03:51:13.232Z,6.96
2023-02-02T03:56:16.096Z,6.97
2023-02-02T04:01:17.721Z,7.05
2023-02-02T04:06:19.331Z,7.02
2023-02-02T04:11:21.577Z,7.06
2023-02-02T04:16:23.331Z,7.16
2023-02-02T04:21:24.895Z,7.05
2023-02-02T04:26:26.897Z,7.01
2023-02-02T04:31:28.463Z,6.94
2023-02-02T04:36:30.170Z,6.90
2023-02-02T04:41:31.750Z,7.01
2023-02-02T04:46:33.154Z,7.06
2023-02-02T04:51:34.911Z,7.09
2023-02-02T04:56:36.432Z,7.11
2023-02-02T05:01:37.862Z,7.16
2023-02-02T05:06:39.308Z,7.06
2023-02-02T05:11:41.115Z,7.08
2023-02-02T05:16:42.587Z,7.06
2023-02-02T05:21:44.407Z,7.11
2023-02-02T05:26:46.335Z,7.13
2023-02-02T05:31:47.807Z,7.22
2023-02-02T05:36:49.897Z,7.11
2023-02-02T05:41:51.387Z,7.10
2023-02-02T05:46:52.795Z,7.06
2023-02-02T05:51:57.469Z,7.12
2023-02-02T05:56:59.220Z,7.04
2023-02-02T06:02:00.756Z,6.98
2023-02-02T06:07:02.159Z,7.04
2023-02-02T06:12:03.936Z,7.06
2023-02-02T06:17:05.603Z,7.08
2023-02-02T06:22:07.071Z,7.07
2023-02-02T06:27:08.739Z,7.13
2023-02-02T06:32:10.305Z,6.94
2023-02-02T06:37:11.872Z,7.14
2023-02-02T06:42:21.162Z,7.17
2023-02-02T06:47:24.992Z,7.11
2023-02-02T06:52:28.386Z,7.14
2023-02-02T06:57:29.837Z,7.11
2023-02-02T07:02:31.550Z,7.16
2023-02-02T07:07:33.894Z,7.14
2023-02-02T07:12:35.346Z,7.02
2023-02-02T07:17:36.849Z,7.05
2023-02-02T07:22:39.640Z,7.05
2023-02-02T07:27:41.046Z,7.05
2023-02-02T07:32:50.003Z,7.03
2023-02-02T07:37:53.525Z,7.10
2023-02-02T07:42:55.098Z,7.18
2023-02-02T07:48:00.302Z,7.17
2023-02-02T07:53:01.916Z,7.20
2023-02-02T07:58:03.596Z,7.19
2023-02-02T08:03:05.224Z,7.26
2023-02-02T08:08:06.846Z,7.28
2023-02-02T08:13:08.291Z,7.22
2023-02-02T08:18:09.795Z,7.32
2023-02-02T08:23:11.260Z,7.37
2023-02-02T08:28:15.488Z,7.39
2023-02-02T08:33:16.966Z,7.47
2023-02-02T08:38:18.796Z,7.42
2023-02-02T08:43:20.727Z,7.62
2023-02-02T08:48:22.251Z,7.57
2023-02-02T08:53:24.700Z,7.67
2023-02-02T08:58:27.198Z,7.75
2023-02-02T09:03:28.769Z,7.73
2023-02-02T09:08:30.312Z,7.84
2023-02-02T09:13:31.798Z,7.79
2023-02-02T09:18:33.318Z,7.88
2023-02-02T09:23:37.153Z,7.89
2023-02-02T09:28:43.501Z,7.82
2023-02-02T09:33:45.409Z,7.87
2023-02-02T09:38:47.357Z,7.89
2023-02-02T09:44:14.537Z,7.97
2023-02-02T09:49:23.681Z,7.95
2023-02-02T09:54:40.734Z,7.97
2023-02-02T09:59:44.064Z,8.05
2023-02-02T10:04:51.324Z,8.00
2023-02-02T10:10:02.578Z,8.09
2023-02-02T10:15:25.962Z,8.08
2023-02-02T10:20:33.359Z,8.15
2023-02-02T10:25:35.318Z,8.12
2023-02-02T10:30:50.502Z,8.26
2023-02-02T10:36:07.411Z,8.32
2023-02-02T10:41:21.177Z,8.60
2023-02-02T10:46:37.799Z,8.63
2023-02-02T10:51:40.203Z,8.59
2023-02-02T10:56:51.315Z,8.54
2023-02-02T11:01:53.551Z,8.53
2023-02-02T11:06:55.686Z,8.60
2023-02-02T11:12:34.393Z,8.63
2023-02-02T11:17:36.110Z,8.51
2023-02-02T11:22:38.530Z,8.69
2023-02-02T11:27:42.260Z,8.72
2023-02-02T11:32:43.880Z,8.76
2023-02-02T11:38:07.496Z,8.77
2023-02-02T11:43:19.517Z,8.85
2023-02-02T11:48:24.833Z,8.94
2023-02-02T11:53:28.425Z,8.97
2023-02-02T11:58:43.641Z,8.99
2023-02-02T12:03:48.437Z,9.06
2023-02-02T12:08:58.286Z,9.10
2023-02-02T12:14:18.645Z,8.96
2023-02-02T12:19:29.365Z,9.03
2023-02-02T12:25:09.315Z,9.06
2023-02-02T12:30:36.508Z,8.99
2023-02-02T12:36:12.483Z,8.91
2023-02-02T12:41:28.993Z,8.96
2023-02-02T12:46:56.947Z,8.88
2023-02-02T12:52:23.525Z,8.86
2023-02-02T12:57:59.455Z,8.94
2023-02-02T13:03:22.575Z,8.95
2023-02-02T13:08:34.017Z,8.82
2023-02-02T13:13:38.851Z,8.95
2023-02-02T13:18:54.437Z,8.93
2023-02-02T13:23:59.322Z,8.85
2023-02-02T13:29:11.333Z,8.95
2023-02-02T13:34:38.023Z,9.07
2023-02-02T13:39:48.440Z,9.17
2023-02-02T13:44:57.967Z,9.01
2023-02-02T13:50:11.532Z,9.02
2023-02-02T13:55:31.912Z,8.93
2023-02-02T14:00:35.798Z,9.07
2023-02-02T14:05:41.188Z,9.22
2023-02-02T14:10:55.837Z,9.17
2023-02-02T14:15:58.872Z,9.10
2023-02-02T14:21:00.546Z,9.15
2023-02-02T14:26:09.905Z,8.95
2023-02-02T14:31:41.068Z,9.05
2023-02-02T14:37:12.306Z,9.07
2023-02-02T14:42:35.356Z,8.99
2023-02-02T14:48:18.440Z,8.94
2023-02-02T14:53:24.349Z,8.98
2023-02-02T14:58:34.686Z,8.97
2023-02-02T15:03:47.116Z,8.96
2023-02-02T15:09:19.745Z,8.97
2023-02-02T15:14:22.562Z,8.93
2023-02-02T15:19:45.159Z,8.89
2023-02-02T15:24:47.518Z,8.98
2023-02-02T15:29:55.079Z,8.95
2023-02-02T15:35:04.688Z,8.97
2023-02-02T15:40:22.822Z,8.93
2023-02-02T15:45:32.353Z,8.85
2023-02-02T15:50:34.047Z,8.85
2023-02-02T15:55:36.379Z,8.84
2023-02-02T16:00:38.278Z,8.77
2023-02-02T16:05:55.803Z,8.80
2023-02-02T16:11:15.523Z,8.79
2023-02-02T16:16:29.015Z,8.75
2023-02-02T16:21:31.912Z,8.75
2023-02-02T16:26:35.429Z,8.74
2023-02-02T16:31:36.956Z,8.67
2023-02-02T16:36:38.461Z,8.75
2023-02-02T16:41:40.094Z,8.68
2023-02-02T16:46:58.147Z,8.64
2023-02-02T16:52:15.627Z,8.61
2023-02-02T16:57:21.513Z,8.59
2023-02-02T17:02:26.101Z,8.62
2023-02-02T17:07:29.689Z,8.57
2023-02-02T17:12:34.605Z,8.52
2023-02-02T17:17:36.937Z,8.55
2023-02-02T17:22:41.976Z,8.44
2023-02-02T17:27:44.543Z,8.51
2023-02-02T17:32:46.244Z,8.45
2023-02-02T17:37:48.391Z,8.41
2023-02-02T17:42:52.322Z,8.23
2023-02-02T17:47:53.897Z,8.38
2023-02-02T17:52:56.120Z,8.26
2023-02-02T17:57:58.281Z,8.30
2023-02-02T18:03:09.314Z,8.22
2023-02-02T18:08:14.407Z,8.36
2023-02-02T18:13:18.231Z,8.33
2023-02-02T18:18:19.814Z,8.32
2023-02-02T18:23:21.431Z,8.23
2023-02-02T18:28:22.889Z,8.27
2023-02-02T18:33:24.490Z,8.23
2023-02-02T18:38:26.055Z,8.40
2023-02-02T19:00:55.931Z,8.20
2023-02-02T19:05:57.566Z,8.20
2023-02-02T19:11:01.902Z,8.15
2023-02-02T19:16:09.153Z,8.13
2023-02-02T19:21:14.208Z,8.28
2023-02-02T19:26:22.392Z,8.35
2023-02-02T19:31:24.070Z,8.27
2023-02-02T19:36:26.679Z,8.31
2023-02-02T19:41:29.797Z,8.38
2023-02-02T19:46:32.297Z,8.20
2023-02-02T19:51:42.238Z,8.21
2023-02-02T19:56:43.799Z,8.23
2023-02-02T20:01:45.509Z,8.15
2023-02-02T20:06:58.568Z,8.19
2023-02-02T20:12:00.873Z,8.32
2023-02-02T20:17:12.761Z,8.34
2023-02-02T20:22:27.272Z,8.20
2023-02-02T20:27:30.793Z,8.28
2023-02-02T20:32:40.842Z,8.32
2023-02-02T20:37:42.823Z,8.35
2023-02-02T20:42:44.402Z,8.31
2023-02-02T20:47:45.890Z,8.36
2023-02-02T20:52:48.025Z,8.29
2023-02-02T20:57:49.625Z,8.27
2023-02-02T21:02:51.202Z,8.18
2023-02-02T21:07:52.980Z,8.12
2023-02-02T21:12:54.573Z,8.03
2023-02-02T21:17:56.216Z,7.97
2023-02-02T21:22:57.675Z,7.85
2023-02-02T21:27:59.294Z,7.81
2023-02-02T21:33:00.894Z,7.95
2023-02-02T21:38:10.474Z,7.85
2023-02-02T21:43:17.019Z,7.74
2023-02-02T21:48:32.805Z,7.91
2023-02-02T21:53:35.860Z,7.93
2023-02-02T21:58:37.848Z,7.98
2023-02-02T22:03:39.787Z,8.03
2023-02-02T22:08:41.418Z,7.96
2023-02-02T22:13:42.917Z,8.05
2023-02-02T22:18:44.699Z,8.13
2023-02-02T22:23:46.206Z,8.19
2023-02-02T22:28:47.743Z,8.15
2023-02-02T22:33:49.412Z,8.21
2023-02-02T22:38:50.886Z,8.04
2023-02-02T22:43:52.375Z,8.16
2023-02-02T22:48:53.925Z,8.24
2023-02-02T22:53:55.579Z,8.22
2023-02-02T22:58:59.222Z,8.29
2023-02-02T23:04:01.135Z,8.38
2023-02-02T23:09:02.898Z,8.30
2023-02-02T23:14:04.491Z,8.22
2023-02-02T23:19:06.063Z,8.19
2023-02-02T23:24:07.966Z,8.13
2023-02-02T23:29:09.498Z,8.15
2023-02-02T23:34:11.192Z,8.19
2023-02-02T23:39:12.691Z,8.20
2023-02-02T23:44:14.243Z,8.27
2023-02-02T23:49:16.271Z,8.18
2023-02-02T23:54:17.753Z,8.13
2023-02-02T23:59:19.321Z,8.11
